Time;durP1;ratioP1;P1;durP2;ratioP2;P2;SDS_P1;SDS_P2;PMS_P1;PMS_P2;Temp;Humidity;BMP_temperature;BMP_pressure;BME280_temperature;BME280_humidity;BME280_pressure;Samples;Min_cycle;Max_cycle;Signal;HPM_P1;HPM_P2
2022/12/20 00:01:31;;;;;;;137.00;56.40;;;;;;;-4.08;85.37;99372.08;103102;1287;25782;-76
2022/12/20 00:04:01;;;;;;;137.80;58.50;;;;;;;-4.06;85.02;99369.36;103306;1288;139113;-76
2022/12/20 00:06:28;;;;;;;132.40;57.20;;;;;;;-4.02;85.25;99372.41;103092;1310;24470;-76
2022/12/20 00:08:58;;;;;;;152.10;60.20;;;;;;;-3.97;85.64;99369.73;103198;1310;139284;-76
2022/12/20 00:11:27;;;;;;;168.30;66.60;;;;;;;-3.93;85.79;99371.70;103165;1281;22486;-76
2022/12/20 00:13:54;;;;;;;170.30;71.50;;;;;;;-3.90;85.41;99376.02;103145;1296;23251;-76
2022/12/20 00:29:06;;;;;;;175.20;76.50;;;;;;;-3.83;84.80;99379.90;99798;1347;561104;-76
2022/12/20 00:31:34;;;;;;;160.30;68.20;;;;;;;-3.80;85.13;99379.50;101637;1310;25390;-76
2022/12/20 00:34:03;;;;;;;176.40;71.50;;;;;;;-3.77;84.81;99376.95;101689;1316;137423;-76
2022/12/20 00:36:31;;;;;;;172.00;67.70;;;;;;;-3.78;84.86;99377.15;101730;1310;24347;-76
2022/12/20 00:38:59;;;;;;;168.70;74.40;;;;;;;-3.78;84.47;99380.57;101415;1319;137635;-76
2022/12/20 00:41:28;;;;;;;151.00;69.30;;;;;;;-3.80;84.66;99382.95;100874;1303;1291127;-76
2022/12/20 00:43:55;;;;;;;164.40;70.60;;;;;;;-3.82;84.29;99388.00;102466;1318;24322;-76
2022/12/20 00:46:23;;;;;;;157.00;70.00;;;;;;;-3.85;84.57;99388.20;101767;1317;139662;-76
2022/12/20 00:48:52;;;;;;;;;;;;;;;-3.85;84.72;99388.02;102046;1310;22449;-76
2022/12/20 00:51:21;;;;;;;143.90;63.10;;;;;;;-3.84;85.11;99389.52;101603;1318;123502;-76
2022/12/20 00:53:48;;;;;;;150.50;64.70;;;;;;;-3.83;85.28;99392.11;101752;1317;22507;-76
2022/12/20 00:56:14;;;;;;;145.00;62.40;;;;;;;-3.82;84.99;99390.43;101786;1317;138209;-75
2022/12/20 00:58:42;;;;;;;139.20;66.10;;;;;;;-3.80;85.33;99385.34;102069;1317;22576;-76
2022/12/20 01:01:20;;;;;;;154.90;64.20;;;;;;;-3.79;85.33;99385.09;101947;1322;22563;-76
2022/12/20 01:03:48;;;;;;;137.10;60.50;;;;;;;-3.77;85.44;99378.87;101704;1324;138741;-76
2022/12/20 01:06:15;;;;;;;125.80;53.40;;;;;;;-3.74;85.81;99376.13;101965;1319;22874;-76
2022/12/20 01:08:41;;;;;;;101.70;50.10;;;;;;;-3.69;85.83;99375.48;102085;1311;139568;-76
2022/12/20 01:11:14;;;;;;;113.40;50.10;;;;;;;-3.64;85.64;99370.45;101812;1304;26788;-76
2022/12/20 01:13:43;;;;;;;109.20;48.90;;;;;;;-3.60;85.80;99369.80;102190;1302;25726;-76
2022/12/20 01:16:14;;;;;;;;;;;;;;;-3.55;85.58;99366.89;101920;1308;138864;-76
2022/12/20 01:18:41;;;;;;;103.60;46.60;;;;;;;-3.51;85.80;99359.74;102050;1303;24305;-76
2022/12/20 01:21:11;;;;;;;105.50;48.20;;;;;;;-3.47;86.12;99360.27;101768;1322;138842;-76
2022/12/20 01:23:37;;;;;;;115.00;48.70;;;;;;;-3.45;86.21;99357.60;101929;1302;22614;-76
2022/12/20 01:26:09;;;;;;;114.40;49.70;;;;;;;-3.42;85.86;99358.45;101958;1308;21718;-76
2022/12/20 01:28:39;;;;;;;128.60;53.10;;;;;;;-3.40;86.00;99351.93;102106;1316;22487;-76
2022/12/20 01:31:07;;;;;;;122.20;55.80;;;;;;;-3.39;86.25;99352.36;101754;1325;24384;-77
2022/12/20 01:33:34;;;;;;;138.30;55.60;;;;;;;-3.37;86.48;99346.17;101554;1300;138422;-76
2022/12/20 01:36:04;;;;;;;129.60;53.50;;;;;;;-3.37;86.40;99345.59;101871;1317;25287;-76
2022/12/20 01:38:31;;;;;;;129.30;56.80;;;;;;;-3.37;86.33;99347.74;101781;1294;137968;-76
2022/12/20 01:40:58;;;;;;;126.00;54.40;;;;;;;-3.37;86.62;99342.03;101899;1307;25036;-77
2022/12/20 01:43:43;;;;;;;130.70;56.60;;;;;;;-3.35;86.87;99341.54;102042;1303;23889;-76
2022/12/20 01:46:10;;;;;;;137.60;59.90;;;;;;;-3.34;86.72;99335.91;101830;1320;138506;-76
2022/12/20 01:48:40;;;;;;;136.10;57.00;;;;;;;-3.33;86.88;99338.32;101878;1297;23397;-76
2022/12/20 01:51:07;;;;;;;132.00;56.80;;;;;;;-3.34;86.63;99336.96;101984;1301;137861;-76
2022/12/20 01:53:34;;;;;;;133.60;56.20;;;;;;;-3.32;86.93;99334.56;102332;1301;25270;-76
2022/12/20 01:56:04;;;;;;;136.30;58.40;;;;;;;-3.29;87.19;99329.30;102075;1301;25233;-76
2022/12/20 01:58:31;;;;;;;123.00;57.00;;;;;;;-3.27;87.31;99329.62;101933;1317;137616;-76
2022/12/20 02:00:57;;;;;;;130.40;58.70;;;;;;;-3.24;87.58;99330.98;101898;1315;23044;-76
2022/12/20 02:03:24;;;;;;;135.30;58.00;;;;;;;-3.20;87.98;99326.76;101706;1303;138288;-76
2022/12/20 02:05:51;;;;;;;129.30;54.90;;;;;;;-3.16;87.99;99331.50;101841;1302;22486;-76
2022/12/20 02:08:19;;;;;;;122.30;52.90;;;;;;;-3.14;87.54;99347.83;102100;1311;138989;-76
2022/12/20 02:11:08;;;;;;;133.60;55.50;;;;;;;-3.12;87.69;99361.52;101733;1311;24266;-76
2022/12/20 02:14:04;;;;;;;144.70;64.50;;;;;;;-3.10;87.55;99362.42;101987;1325;25477;-76
2022/12/20 02:16:38;;;;;;;143.40;63.00;;;;;;;-3.13;86.81;99348.17;102256;1304;138800;-76
2022/12/20 02:19:05;;;;;;;142.00;62.60;;;;;;;-3.17;86.74;99339.59;101823;1301;22488;-76
2022/12/20 02:21:34;;;;;;;147.30;63.80;;;;;;;-3.16;86.95;99326.06;101882;1300;137893;-76
2022/12/20 02:24:37;;;;;;;138.00;60.40;;;;;;;-3.15;87.39;99324.71;103014;1292;22632;-76
2022/12/20 02:27:29;;;;;;;132.00;55.80;;;;;;;-3.12;87.71;99322.29;102946;1301;138218;-76
2022/12/20 02:30:05;;;;;;;129.50;52.30;;;;;;;-3.09;87.86;99311.55;103222;1294;25303;-76
2022/12/20 02:33:02;;;;;;;119.00;49.80;;;;;;;-3.06;87.89;99310.23;102855;1293;137980;-76
2022/12/20 02:35:32;;;;;;;104.70;45.30;;;;;;;-3.03;87.90;99315.60;103404;1291;25409;-76
2022/12/20 02:38:02;;;;;;;99.90;44.60;;;;;;;-2.98;88.11;99312.73;103035;1288;22476;-76
2022/12/20 02:40:38;;;;;;;90.80;41.40;;;;;;;-2.94;88.01;99306.98;102460;1310;137629;-76
2022/12/20 02:45:14;;;;;;;102.90;45.60;;;;;;;-2.90;87.91;99305.06;102468;1309;22463;-76
2022/12/20 02:45:57;;;;;;;99.00;45.60;;;;;;;-2.88;87.85;99295.96;102512;1293;139217;-76
2022/12/20 02:48:27;;;;;;;102.80;43.70;;;;;;;-2.87;87.82;99292.66;102532;1299;22497;-76
2022/12/20 02:50:56;;;;;;;99.40;43.80;;;;;;;-2.85;87.94;99294.87;102996;1291;138092;-76
2022/12/20 02:53:23;;;;;;;93.50;43.70;;;;;;;-2.85;87.67;99289.67;102913;1284;22965;-76
2022/12/20 02:56:26;;;;;;;98.90;41.80;;;;;;;-2.82;88.06;99283.19;102964;1285;22600;-76
2022/12/20 02:59:01;;;;;;;92.30;42.90;;;;;;;-2.78;88.06;99291.33;102218;1297;25276;-76
2022/12/20 03:01:35;;;;;;;95.00;40.70;;;;;;;-2.73;87.97;99291.10;102135;1322;25353;-76
2022/12/20 03:04:02;;;;;;;97.00;43.60;;;;;;;-2.70;88.01;99289.88;102000;1298;138117;-76
2022/12/20 03:06:29;;;;;;;150.00;65.70;;;;;;;-2.69;87.53;99291.61;101772;1300;23260;-76
2022/12/20 03:08:56;;;;;;;147.70;62.40;;;;;;;-2.71;87.57;99303.54;102011;1313;137935;-76
2022/12/20 03:11:24;;;;;;;148.60;64.40;;;;;;;-2.75;87.33;99301.59;102117;1306;21716;-76
2022/12/20 03:13:51;;;;;;;139.20;64.20;;;;;;;-2.82;87.28;99296.52;102157;1322;24336;-76
2022/12/20 03:16:17;;;;;;;153.10;68.60;;;;;;;-2.86;87.64;99293.09;101880;1298;138455;-76
2022/12/20 03:18:44;;;;;;;149.10;66.90;;;;;;;-2.83;87.86;99289.69;102077;1322;22574;-76
2022/12/20 03:21:11;;;;;;;151.70;64.70;;;;;;;-2.80;88.27;99284.23;102030;1303;138170;-76
2022/12/20 03:23:40;;;;;;;146.30;65.90;;;;;;;-2.76;88.29;99274.08;102204;1307;23428;-76
2022/12/20 03:26:06;;;;;;;140.20;62.20;;;;;;;-2.72;88.48;99277.77;101931;1297;26091;-76
2022/12/20 03:28:36;;;;;;;132.90;58.90;;;;;;;-2.69;88.57;99275.45;102195;1305;139714;-76
2022/12/20 03:31:05;;;;;;;136.60;61.40;;;;;;;-2.64;88.67;99274.78;102041;1307;22500;-76
2022/12/20 03:33:33;;;;;;;131.50;61.70;;;;;;;-2.59;88.68;99276.10;101781;1307;139381;-76
2022/12/20 03:36:05;;;;;;;141.10;64.00;;;;;;;-2.53;88.79;99277.00;102353;1310;25585;-76
2022/12/20 03:38:31;;;;;;;153.50;65.40;;;;;;;-2.49;88.72;99280.53;102450;1293;138052;-76
2022/12/20 03:40:57;;;;;;;164.20;70.20;;;;;;;-2.45;88.88;99288.89;104186;1315;22679;-76
2022/12/20 03:43:24;;;;;;;167.30;72.50;;;;;;;-2.42;88.80;99284.53;102540;1303;22598;-76
2022/12/20 03:45:50;;;;;;;169.10;72.10;;;;;;;-2.40;88.68;99282.04;102434;1314;138067;-76
2022/12/20 03:48:17;;;;;;;159.70;71.80;;;;;;;-2.39;88.10;99278.02;102545;1288;25307;-77
2022/12/20 03:50:43;;;;;;;144.20;65.40;;;;;;;-2.42;88.17;99275.44;102504;1291;140152;-77
2022/12/20 03:53:09;;;;;;;163.70;68.70;;;;;;;-2.43;87.93;99277.36;102782;1301;25293;-77
2022/12/20 03:55:36;;;;;;;150.40;68.80;;;;;;;-2.44;88.09;99273.51;103086;1300;25331;-77
2022/12/20 03:58:02;;;;;;;153.90;68.20;;;;;;;-2.46;88.00;99266.44;102423;1304;139633;-76
2022/12/20 04:00:34;;;;;;;148.50;67.30;;;;;;;-2.47;88.05;99261.36;102930;1292;25351;-77
2022/12/20 04:03:26;;;;;;;156.20;67.40;;;;;;;-2.51;88.07;99258.47;102925;1302;139410;-77
2022/12/20 04:05:53;;;;;;;154.30;67.00;;;;;;;-2.55;87.86;99265.06;102820;1316;22465;-76
2022/12/20 04:08:19;;;;;;;163.10;69.00;;;;;;;-2.58;87.85;99269.44;102767;1300;22951;-77
2022/12/20 04:13:33;;;;;;;141.90;62.20;;;;;;;-2.72;87.45;99258.31;102733;1301;25219;-77
2022/12/20 04:16:00;;;;;;;139.10;59.70;;;;;;;-2.79;87.50;99257.17;102478;1308;138204;-76
2022/12/20 04:18:27;;;;;;;136.10;57.40;;;;;;;-2.85;87.63;99255.89;102499;1316;22473;-76
2022/12/20 04:20:54;;;;;;;131.80;60.60;;;;;;;-2.89;87.73;99246.88;102440;1316;138094;-76
2022/12/20 04:23:24;;;;;;;127.90;55.90;;;;;;;-2.94;87.71;99243.37;102567;1285;24203;-77
2022/12/20 04:25:51;;;;;;;135.70;57.40;;;;;;;-2.97;87.72;99240.68;102823;1316;22491;-77
2022/12/20 04:28:18;;;;;;;142.20;55.20;;;;;;;-3.01;87.95;99236.77;102743;1299;138199;-76
2022/12/20 04:30:44;;;;;;;125.70;54.60;;;;;;;-3.03;87.97;99239.83;102390;1301;22477;-77
2022/12/20 04:33:11;;;;;;;131.30;55.90;;;;;;;-3.06;87.98;99240.59;102833;1286;138606;-77
2022/12/20 04:35:40;;;;;;;124.00;55.80;;;;;;;-3.08;88.22;99244.14;102651;1294;22618;-77
2022/12/20 04:38:06;;;;;;;128.30;54.60;;;;;;;-3.10;88.28;99242.52;102733;1300;22538;-77
2022/12/20 04:40:33;;;;;;;131.40;55.20;;;;;;;-3.10;88.49;99241.50;102399;1301;138155;-76
2022/12/20 04:43:01;;;;;;;133.60;58.50;;;;;;;-3.10;88.52;99245.94;102651;1291;22438;-76
2022/12/20 04:45:30;;;;;;;136.90;56.90;;;;;;;-3.12;88.48;99234.20;102395;1291;140832;-76
2022/12/20 04:47:56;;;;;;;139.50;57.10;;;;;;;-3.12;88.41;99233.50;102625;1310;22919;-76
2022/12/20 04:50:27;;;;;;;131.20;58.70;;;;;;;-3.14;88.59;99248.45;102655;1298;139327;-76
2022/12/20 04:55:39;;;;;;;134.00;60.00;;;;;;;-3.20;88.49;99253.21;102539;1316;22487;-76
2022/12/20 04:58:06;;;;;;;140.20;60.50;;;;;;;-3.24;88.45;99253.91;102434;1291;138152;-76
2022/12/20 05:00:34;;;;;;;131.30;58.00;;;;;;;-3.31;88.32;99254.70;102439;1303;24317;-76
2022/12/20 05:03:07;;;;;;;140.90;61.60;;;;;;;-3.40;88.40;99248.39;102746;1307;139088;-76
2022/12/20 05:05:33;;;;;;;117.60;50.90;;;;;;;-3.43;89.07;99241.77;102616;1305;25311;-76
2022/12/20 05:08:01;;;;;;;83.70;39.30;;;;;;;-3.43;89.64;99237.45;102599;1295;23923;-76
2022/12/20 05:10:28;;;;;;;73.50;32.50;;;;;;;-3.38;89.95;99233.35;102448;1303;138459;-77
2022/12/20 05:12:55;;;;;;;70.80;31.90;;;;;;;-3.32;90.50;99231.85;102417;1299;25329;-77
2022/12/20 05:15:33;;;;;;;70.80;32.60;;;;;;;-3.23;90.74;99234.27;102513;1300;139237;-77
2022/12/20 05:18:00;;;;;;;73.40;32.40;;;;;;;-3.15;90.89;99233.93;102527;1301;22494;-77
2022/12/20 05:20:32;;;;;;;71.50;31.10;;;;;;;-3.08;90.95;99227.81;102480;1293;138087;-77
2022/12/20 05:28:33;;;;;;;72.80;30.50;;;;;;;-2.90;91.03;99228.84;102511;1303;140128;-77
2022/12/20 05:31:00;;;;;;;75.40;31.70;;;;;;;-2.87;91.08;99229.91;102668;1316;22474;-77
2022/12/20 05:33:29;;;;;;;69.30;31.70;;;;;;;-2.83;91.09;99231.21;102387;1311;138212;-77
2022/12/20 05:35:56;;;;;;;73.40;33.40;;;;;;;-2.79;90.99;99230.70;102611;1309;25206;-77
2022/12/20 05:38:23;;;;;;;66.80;30.50;;;;;;;-2.77;91.03;99232.09;102497;1300;23491;-77
2022/12/20 05:40:50;;;;;;;59.20;27.80;;;;;;;-2.74;91.07;99231.81;102431;1308;138036;-77
2022/12/20 05:43:18;;;;;;;65.40;29.00;;;;;;;-2.71;91.10;99231.00;102582;1294;22517;-77
2022/12/20 05:45:50;;;;;;;60.70;28.00;;;;;;;-2.68;91.08;99223.98;102504;1307;138050;-77
2022/12/20 05:48:19;;;;;;;55.70;26.30;;;;;;;-2.65;91.15;99222.80;102628;1292;22466;-77
2022/12/20 05:50:46;;;;;;;59.40;28.70;;;;;;;-2.62;91.01;99229.17;102463;1315;140802;-77
2022/12/20 05:53:33;;;;;;;58.40;28.10;;;;;;;-2.60;90.89;99225.55;102593;1292;22476;-77
2022/12/20 05:56:02;;;;;;;60.20;27.10;;;;;;;-2.58;91.02;99221.11;102929;1292;22607;-77
2022/12/20 05:58:31;;;;;;;;;;;;;;;-2.56;90.93;99220.94;102516;1292;138681;-77
2022/12/20 06:01:04;;;;;;;54.90;24.40;;;;;;;-2.53;91.21;99223.87;102528;1300;25318;-77
2022/12/20 06:03:32;;;;;;;53.70;24.60;;;;;;;-2.51;91.05;99224.75;102385;1297;138714;-77
2022/12/20 06:05:59;;;;;;;56.20;25.60;;;;;;;-2.51;90.92;99226.80;102595;1292;23874;-77
2022/12/20 06:08:29;;;;;;;45.90;22.50;;;;;;;-2.49;90.94;99218.99;102419;1315;139069;-77
2022/12/20 06:10:57;;;;;;;49.40;25.00;;;;;;;-2.47;90.92;99213.36;102617;1292;25313;-78
2022/12/20 06:13:24;;;;;;;54.90;24.00;;;;;;;-2.44;90.97;99213.03;102698;1316;25277;-77
2022/12/20 06:15:52;;;;;;;56.20;24.90;;;;;;;-2.41;91.01;99213.27;102508;1309;139124;-77
2022/12/20 06:18:20;;;;;;;49.90;21.80;;;;;;;-2.38;90.85;99214.44;102563;1316;22476;-77
2022/12/20 06:20:50;;;;;;;46.70;22.80;;;;;;;-2.36;90.86;99206.76;102446;1294;139826;-77
2022/12/20 06:23:19;;;;;;;41.70;21.00;;;;;;;-2.33;90.99;99207.45;102618;1307;22603;-78
2022/12/20 06:25:54;;;;;;;47.70;20.80;;;;;;;-2.30;90.95;99211.71;102678;1301;22540;-78
2022/12/20 06:28:22;;;;;;;45.90;21.70;;;;;;;-2.27;91.15;99208.27;102495;1304;138064;-77
2022/12/20 06:30:57;;;;;;;48.50;24.40;;;;;;;-2.22;90.81;99205.34;102518;1303;23953;-77
2022/12/20 06:33:36;;;;;;;45.70;21.50;;;;;;;-2.19;90.81;99205.23;102779;1309;138619;-78
2022/12/20 06:36:03;;;;;;;42.10;20.60;;;;;;;-2.16;90.73;99203.63;102675;1292;22681;-77
2022/12/20 06:38:29;;;;;;;38.40;19.70;;;;;;;-2.13;90.58;99202.13;102473;1315;138090;-77
2022/12/20 06:40:56;;;;;;;52.80;24.20;;;;;;;-2.09;90.38;99203.58;102507;1300;22541;-77
2022/12/20 06:43:22;;;;;;;50.50;21.90;;;;;;;-2.07;90.37;99203.88;102837;1301;22581;-77
2022/12/20 06:45:48;;;;;;;47.00;22.30;;;;;;;-2.04;90.20;99202.88;102458;1307;137986;-77
2022/12/20 06:48:14;;;;;;;54.50;25.60;;;;;;;-2.01;90.16;99208.18;102655;1300;25268;-77
2022/12/20 06:50:42;;;;;;;53.70;25.50;;;;;;;-1.98;90.10;99214.45;102474;1308;138209;-77
2022/12/20 06:53:09;;;;;;;51.30;24.80;;;;;;;-1.96;90.12;99214.79;102607;1292;22474;-77
2022/12/20 06:55:35;;;;;;;53.00;25.20;;;;;;;-1.94;90.11;99221.33;102652;1308;24240;-77
2022/12/20 06:58:03;;;;;;;48.00;22.00;;;;;;;-1.91;89.76;99221.57;102635;1300;138278;-77
2022/12/20 07:00:29;;;;;;;45.00;21.00;;;;;;;-1.88;89.79;99217.96;102710;1290;22638;-77
2022/12/20 07:02:55;;;;;;;51.50;25.00;;;;;;;-1.85;89.40;99219.45;103069;1301;138761;-77
2022/12/20 07:05:21;;;;;;;46.90;22.80;;;;;;;-1.82;89.46;99215.95;103001;1295;24287;-77
2022/12/20 07:07:48;;;;;;;49.40;21.50;;;;;;;-1.79;89.37;99218.19;102845;1316;22529;-77
2022/12/20 07:10:14;;;;;;;50.10;23.30;;;;;;;-1.75;89.27;99217.21;102600;1316;137954;-77
2022/12/20 07:12:41;;;;;;;44.30;21.90;;;;;;;-1.71;89.07;99214.52;102753;1300;24310;-75
2022/12/20 07:15:08;;;;;;;52.30;24.10;;;;;;;-1.64;90.01;99205.63;102691;1294;139107;-76
2022/12/20 07:17:34;;;;;;;42.60;21.90;;;;;;;-1.46;90.20;99205.00;103006;1316;22616;-78
2022/12/20 07:20:00;;;;;;;48.60;22.10;;;;;;;-1.38;88.94;99204.26;103173;1295;22506;-78
2022/12/20 07:22:26;;;;;;;50.10;21.90;;;;;;;-1.33;88.86;99209.05;102789;1315;138299;-77
2022/12/20 07:24:52;;;;;;;46.40;22.40;;;;;;;-1.30;88.27;99208.23;102816;1293;22483;-78
2022/12/20 07:27:19;;;;;;;49.10;23.00;;;;;;;-1.27;87.97;99207.66;102641;1315;137971;-77
2022/12/20 07:29:45;;;;;;;51.60;22.30;;;;;;;-1.20;88.49;99200.67;102805;1309;22939;-78
2022/12/20 07:32:12;;;;;;;45.60;20.80;;;;;;;-1.13;87.60;99205.20;102812;1316;29044;-77
2022/12/20 07:34:38;;;;;;;45.40;21.60;;;;;;;-1.10;87.48;99200.94;102789;1316;139769;-78
2022/12/20 07:37:04;;;;;;;36.20;18.40;;;;;;;-1.08;86.93;99199.16;102862;1301;22219;-77
2022/12/20 07:39:31;;;;;;;43.10;20.80;;;;;;;-1.06;86.66;99195.54;103152;1291;138525;-78
2022/12/20 07:41:57;;;;;;;45.40;19.20;;;;;;;-1.04;86.75;99198.00;103023;1292;23126;-78
2022/12/20 07:44:23;;;;;;;45.40;21.20;;;;;;;-0.99;86.77;99197.58;102647;1316;22677;-78
2022/12/20 07:46:49;;;;;;;39.50;18.60;;;;;;;-0.96;86.89;99195.06;102659;1314;137763;-78
2022/12/20 07:49:15;;;;;;;35.50;18.20;;;;;;;-0.90;86.38;99196.85;102752;1291;24317;-77
2022/12/20 07:51:47;;;;;;;44.50;20.20;;;;;;;-0.85;86.13;99192.95;102502;1292;138109;-78
2022/12/20 07:54:23;;;;;;;42.90;18.70;;;;;;;-0.80;86.19;99194.20;102780;1290;23914;-77
2022/12/20 07:56:56;;;;;;;45.30;20.80;;;;;;;-0.75;85.77;99194.48;102522;1315;138637;-78
2022/12/20 07:59:29;;;;;;;45.30;21.10;;;;;;;-0.73;85.20;99191.05;102597;1297;22557;-77
2022/12/20 08:01:56;;;;;;;41.20;17.90;;;;;;;-0.68;85.27;99192.17;102622;1310;24045;-78
2022/12/20 08:04:25;;;;;;;39.90;18.30;;;;;;;-0.65;85.18;99193.20;102496;1316;137979;-77
2022/12/20 08:06:55;;;;;;;38.40;17.40;;;;;;;-0.57;85.45;99187.66;102595;1315;22502;-78
2022/12/20 08:09:24;;;;;;;;;;;;;;;-0.48;85.13;99184.37;102936;1289;139628;-78
2022/12/20 08:11:52;;;;;;;37.10;16.90;;;;;;;-0.39;84.57;99181.74;104320;1292;25275;-78
2022/12/20 08:14:18;;;;;;;39.70;17.70;;;;;;;-0.32;84.29;99176.17;104347;1316;22475;-78
2022/12/20 08:16:45;;;;;;;35.60;17.90;;;;;;;-0.23;84.28;99177.73;103270;1309;138053;-78
2022/12/20 08:19:11;;;;;;;34.60;17.80;;;;;;;-0.11;84.08;99180.12;102918;1306;22614;-78
2022/12/20 08:21:37;;;;;;;27.70;13.90;;;;;;;-0.00;83.61;99180.77;103118;1293;138875;-78
2022/12/20 08:24:05;;;;;;;40.20;17.50;;;;;;;0.10;83.29;99177.71;102744;1295;22492;-78
2022/12/20 08:26:36;;;;;;;37.00;16.40;;;;;;;0.19;83.32;99181.24;102747;1293;137989;-78
2022/12/20 08:29:02;;;;;;;40.60;17.10;;;;;;;0.30;82.98;99179.23;103376;1302;23293;-78
2022/12/20 08:31:29;;;;;;;37.20;17.20;;;;;;;0.38;82.81;99174.25;103139;1301;22764;-78
2022/12/20 08:33:55;;;;;;;35.50;16.90;;;;;;;0.48;82.60;99173.29;102996;1300;138646;-78
2022/12/20 08:36:21;;;;;;;31.30;14.70;;;;;;;0.53;82.20;99173.55;103049;1297;22554;-78
2022/12/20 08:38:47;;;;;;;42.40;17.90;;;;;;;0.60;81.92;99176.44;103293;1284;137892;-78
2022/12/20 08:41:15;;;;;;;42.30;18.20;;;;;;;0.67;81.89;99173.94;102890;1301;25373;-78
2022/12/20 08:43:42;;;;;;;39.00;17.20;;;;;;;0.73;81.49;99168.80;103123;1303;25411;-78
2022/12/20 08:46:11;;;;;;;32.60;17.10;;;;;;;0.80;81.43;99168.48;102743;1302;138328;-78
2022/12/20 08:48:37;;;;;;;35.60;15.70;;;;;;;0.88;81.40;99171.31;104032;1301;22195;-78
2022/12/20 08:51:07;;;;;;;37.40;17.40;;;;;;;0.96;81.20;99176.89;103905;1304;138637;-78
2022/12/20 08:53:34;;;;;;;36.00;17.80;;;;;;;1.04;80.87;99181.02;102927;1301;22520;-78
2022/12/20 08:56:06;;;;;;;33.20;16.20;;;;;;;1.12;80.21;99173.54;103002;1316;24420;-78
2022/12/20 08:58:32;;;;;;;34.60;17.00;;;;;;;1.18;79.74;99176.16;102949;1285;139332;-79
2022/12/20 09:01:00;;;;;;;40.40;17.00;;;;;;;1.23;79.42;99171.48;102868;1286;22475;-79
2022/12/20 09:03:30;;;;;;;40.40;17.40;;;;;;;1.28;79.02;99174.45;102766;1304;139117;-78
2022/12/20 09:05:57;;;;;;;34.70;15.90;;;;;;;1.33;78.89;99171.25;103009;1305;22612;-78
2022/12/20 09:08:24;;;;;;;40.00;16.70;;;;;;;1.42;78.81;99173.19;103206;1297;25023;-78
2022/12/20 09:10:51;;;;;;;37.00;17.30;;;;;;;1.49;78.42;99169.90;102717;1301;137805;-78
2022/12/20 09:13:18;;;;;;;33.10;16.10;;;;;;;1.55;78.12;99161.50;102677;1294;22609;-78
2022/12/20 09:15:44;;;;;;;36.90;15.80;;;;;;;1.63;77.78;99167.80;102807;1294;137815;-78
2022/12/20 09:18:11;;;;;;;33.80;15.90;;;;;;;1.68;77.43;99175.45;102854;1297;23380;-77
2022/12/20 09:20:44;;;;;;;38.30;18.60;;;;;;;1.72;77.36;99171.44;102562;1315;138003;-77
2022/12/20 09:23:11;;;;;;;34.40;17.30;;;;;;;1.78;77.06;99170.52;103062;1295;25298;-77
2022/12/20 09:25:37;;;;;;;35.10;17.40;;;;;;;1.84;77.30;99167.59;103035;1291;22557;-78
2022/12/20 09:28:04;;;;;;;39.20;17.00;;;;;;;1.93;76.63;99159.67;102282;1310;137992;-77
2022/12/20 09:30:30;;;;;;;38.30;18.00;;;;;;;2.02;76.68;99147.94;102636;1304;23881;-78
2022/12/20 09:32:56;;;;;;;39.40;18.10;;;;;;;2.16;76.03;99141.36;102575;1316;138093;-77
2022/12/20 09:35:22;;;;;;;40.10;19.20;;;;;;;2.30;76.75;99139.49;102890;1291;22544;-79
2022/12/20 09:37:48;;;;;;;39.20;18.70;;;;;;;2.53;76.43;99133.67;103186;1291;22520;-77
2022/12/20 09:40:20;;;;;;;39.90;18.10;;;;;;;2.68;75.46;99126.40;102745;1300;137508;-79
2022/12/20 09:42:49;;;;;;;34.80;16.70;;;;;;;2.77;74.84;99123.52;102663;1297;25574;-78
2022/12/20 09:45:25;;;;;;;41.50;20.40;;;;;;;2.81;74.26;99123.25;102591;1299;137170;-78
2022/12/20 09:47:51;;;;;;;38.10;18.20;;;;;;;2.87;74.34;99124.80;102801;1298;24256;-79
2022/12/20 09:50:19;;;;;;;44.60;19.40;;;;;;;2.90;73.96;99123.70;102639;1316;22479;-78
2022/12/20 09:53:13;;;;;;;39.40;19.00;;;;;;;2.99;74.14;99131.94;103018;1316;138845;-78
2022/12/20 09:55:45;;;;;;;38.10;17.70;;;;;;;3.06;73.14;99119.30;102575;1292;25365;-78
2022/12/20 09:58:14;;;;;;;42.90;19.10;;;;;;;3.09;73.37;99109.34;102850;1307;137779;-79
2022/12/20 10:00:48;;;;;;;47.60;20.60;;;;;;;3.11;72.86;99116.91;102972;1288;25322;-79
2022/12/20 10:03:30;;;;;;;44.70;20.40;;;;;;;3.16;73.27;99121.05;103107;1315;137985;-79
2022/12/20 10:06:05;;;;;;;41.40;20.00;;;;;;;3.19;72.67;99122.10;102952;1316;24300;-79
2022/12/20 10:08:44;;;;;;;39.50;18.10;;;;;;;3.25;73.12;99126.38;102993;1291;25270;-79
2022/12/20 10:11:50;;;;;;;36.30;17.70;;;;;;;3.31;72.30;99132.35;102574;1315;139048;-78
2022/12/20 10:14:22;;;;;;;34.60;16.60;;;;;;;3.36;71.67;99130.84;103218;1300;22648;-79
2022/12/20 10:17:00;;;;;;;39.30;18.70;;;;;;;3.42;71.32;99128.82;102976;1298;137090;-78
2022/12/20 10:20:07;;;;;;;41.90;19.30;;;;;;;3.52;71.08;99119.48;104039;1301;22210;-80
2022/12/20 10:23:06;;;;;;;38.40;19.50;;;;;;;3.63;71.15;99110.61;102876;1316;137333;-79
2022/12/20 10:25:33;;;;;;;40.10;19.70;;;;;;;3.75;70.99;99106.28;102503;1310;22484;-79
2022/12/20 10:28:09;;;;;;;39.50;20.20;;;;;;;3.87;70.63;99106.45;102587;1316;137769;-78
2022/12/20 10:30:36;;;;;;;41.80;19.40;;;;;;;3.95;70.71;99094.34;102656;1305;22715;-78
2022/12/20 10:33:02;;;;;;;39.10;19.10;;;;;;;4.01;70.67;99088.98;102988;1315;139132;-78
2022/12/20 10:35:39;;;;;;;41.20;19.60;;;;;;;4.06;70.29;99077.06;103149;1302;22488;-77
2022/12/20 10:38:11;;;;;;;41.50;19.90;;;;;;;4.15;70.25;99073.36;103194;1296;22565;-77
2022/12/20 10:40:39;;;;;;;41.20;20.20;;;;;;;4.25;70.19;99059.14;103010;1289;137064;-77
2022/12/20 10:43:15;;;;;;;34.30;18.20;;;;;;;4.39;70.11;99050.91;102863;1300;23417;-77
2022/12/20 10:45:42;;;;;;;36.20;18.90;;;;;;;4.53;69.56;99041.93;103460;1296;137744;-78
2022/12/20 10:48:34;;;;;;;37.60;19.90;;;;;;;4.69;69.18;99039.90;103061;1292;22538;-77
2022/12/20 10:51:14;;;;;;;35.00;19.20;;;;;;;4.90;68.40;99031.71;102948;1304;138239;-77
2022/12/20 10:53:54;;;;;;;37.70;19.50;;;;;;;5.03;68.02;99026.50;103095;1289;22474;-77
2022/12/20 10:56:26;;;;;;;39.60;19.80;;;;;;;5.09;67.39;99023.98;103112;1295;23880;-76
2022/12/20 10:58:58;;;;;;;45.00;20.70;;;;;;;5.12;68.04;99021.59;102979;1291;137219;-76
2022/12/20 11:01:34;;;;;;;39.30;19.50;;;;;;;5.20;68.10;99019.65;102943;1290;25345;-77
2022/12/20 11:04:03;;;;;;;41.80;19.50;;;;;;;5.20;67.83;99028.00;102953;1312;138251;-77
2022/12/20 11:06:42;;;;;;;44.00;19.80;;;;;;;5.13;67.91;99028.83;102931;1297;22505;-77
2022/12/20 11:09:30;;;;;;;44.10;21.40;;;;;;;5.11;68.60;99026.89;102826;1313;137636;-77
2022/12/20 11:11:57;;;;;;;44.90;21.70;;;;;;;5.11;68.44;99019.22;102996;1293;23883;-77
2022/12/20 11:14:24;;;;;;;40.60;21.10;;;;;;;5.07;68.16;99016.11;103175;1313;22475;-77
2022/12/20 11:16:52;;;;;;;42.30;21.00;;;;;;;5.00;68.03;99020.38;103036;1297;137208;-77
2022/12/20 11:19:29;;;;;;;39.80;20.00;;;;;;;4.92;68.28;99026.58;102986;1298;25349;-77
2022/12/20 11:22:10;;;;;;;42.00;19.90;;;;;;;4.84;68.19;99033.81;102920;1311;138484;-76
2022/12/20 11:25:07;;;;;;;39.50;19.40;;;;;;;4.68;68.33;99028.73;102989;1306;22492;-76
2022/12/20 11:27:41;;;;;;;41.50;21.80;;;;;;;4.60;70.32;99029.94;103174;1306;137657;-76
2022/12/20 11:30:16;;;;;;;42.10;21.50;;;;;;;4.55;69.27;99028.19;102973;1303;25439;-76
2022/12/20 11:33:04;;;;;;;45.30;21.80;;;;;;;4.47;69.52;99032.08;103061;1297;25353;-76
2022/12/20 11:35:39;;;;;;;41.40;20.60;;;;;;;4.38;69.54;99031.02;103073;1288;22499;-76
2022/12/20 11:38:25;;;;;;;38.60;20.40;;;;;;;4.22;68.97;99035.23;103253;1298;25441;-76
2022/12/20 11:41:00;;;;;;;46.30;22.10;;;;;;;4.02;69.29;99023.77;103051;1297;138598;-78
2022/12/20 11:43:32;;;;;;;47.30;23.30;;;;;;;3.88;69.94;99025.85;103020;1297;25032;-78
2022/12/20 11:46:25;;;;;;;50.70;25.90;;;;;;;3.78;70.52;99018.80;103476;1313;137801;-79